4XTAB LLMZ-LLBS
Flight info
| Callsign | 4XTAB |
|---|---|
| Flight time | 0h 33m |
| Altitude | 4000 |
| Route | MMORR |
| Aircraft | C172/L-SD/C |
Departure
| Time | 2026-05-06 19:10 |
|---|---|
| Airport | Bar Yehuda Airfield (LLMZ) |
Arrival
| Time | 2026-05-06 19:44 |
|---|---|
| Airport | Beersheba (Teyman) Airport (LLBS) |
| Time | Latitude | Longitude | Altitude | Speed | Heading |
|---|---|---|---|---|---|
| 2026-05-06 19:06 | 31.32960 | 35.38817 | -1243 ft | 0 kts | 92° |
| 2026-05-06 19:06 | 31.32960 | 35.38820 | -1243 ft | 1 kts | 88° |
| 2026-05-06 19:07 | 31.32960 | 35.38829 | -1243 ft | 0 kts | 87° |
| 2026-05-06 19:07 | 31.32960 | 35.38841 | -1243 ft | 4 kts | 93° |
| 2026-05-06 19:07 | 31.32960 | 35.38846 | -1243 ft | 0 kts | 95° |
| 2026-05-06 19:07 | 31.32992 | 35.38888 | -1242 ft | 13 kts | 16° |
| 2026-05-06 19:08 | 31.33101 | 35.38909 | -1239 ft | 15 kts | 9° |
| 2026-05-06 19:08 | 31.33204 | 35.38927 | -1237 ft | 14 kts | 8° |
| 2026-05-06 19:08 | 31.33294 | 35.38941 | -1236 ft | 7 kts | 3° |
| 2026-05-06 19:08 | 31.33347 | 35.38946 | -1235 ft | 5 kts | 87° |
| 2026-05-06 19:09 | 31.33305 | 35.38952 | -1235 ft | 4 kts | 189° |
| 2026-05-06 19:09 | 31.33305 | 35.38951 | -1235 ft | 0 kts | 190° |
| 2026-05-06 19:09 | 31.33222 | 35.38937 | -1237 ft | 39 kts | 188° |
| 2026-05-06 19:09 | 31.32844 | 35.38864 | -1132 ft | 57 kts | 176° |
| 2026-05-06 19:10 | 31.32362 | 35.38865 | -1028 ft | 78 kts | 177° |
| 2026-05-06 19:10 | 31.31818 | 35.38837 | -798 ft | 78 kts | 190° |
| 2026-05-06 19:10 | 31.31275 | 35.38726 | -566 ft | 77 kts | 187° |
| 2026-05-06 19:10 | 31.30768 | 35.38654 | -294 ft | 72 kts | 184° |
| 2026-05-06 19:11 | 31.30302 | 35.38588 | -21 ft | 64 kts | 185° |
| 2026-05-06 19:11 | 31.29848 | 35.38521 | 188 ft | 66 kts | 189° |
| 2026-05-06 19:11 | 31.29370 | 35.38363 | 410 ft | 66 kts | 197° |
| 2026-05-06 19:11 | 31.28915 | 35.38192 | 594 ft | 71 kts | 185° |
| 2026-05-06 19:12 | 31.28464 | 35.38146 | 830 ft | 67 kts | 185° |
| 2026-05-06 19:12 | 31.27990 | 35.38033 | 1031 ft | 70 kts | 193° |
| 2026-05-06 19:12 | 31.27525 | 35.37907 | 1241 ft | 70 kts | 189° |
| 2026-05-06 19:12 | 31.27041 | 35.37814 | 1429 ft | 73 kts | 189° |
| 2026-05-06 19:13 | 31.26547 | 35.37639 | 1624 ft | 75 kts | 202° |
| 2026-05-06 19:13 | 31.26235 | 35.37216 | 1857 ft | 70 kts | 248° |
| 2026-05-06 19:13 | 31.26146 | 35.36637 | 2044 ft | 72 kts | 269° |
| 2026-05-06 19:13 | 31.26136 | 35.36073 | 2250 ft | 72 kts | 271° |
| 2026-05-06 19:14 | 31.26167 | 35.35499 | 2461 ft | 70 kts | 277° |
| 2026-05-06 19:14 | 31.26202 | 35.34924 | 2650 ft | 71 kts | 266° |
| 2026-05-06 19:14 | 31.26159 | 35.34360 | 2842 ft | 71 kts | 255° |
| 2026-05-06 19:14 | 31.26109 | 35.33782 | 3040 ft | 71 kts | 267° |
| 2026-05-06 19:15 | 31.26076 | 35.33207 | 3225 ft | 72 kts | 261° |
| 2026-05-06 19:15 | 31.26020 | 35.32630 | 3417 ft | 72 kts | 262° |
| 2026-05-06 19:15 | 31.25950 | 35.32051 | 3604 ft | 72 kts | 263° |
| 2026-05-06 19:15 | 31.25943 | 35.31463 | 3790 ft | 72 kts | 264° |
| 2026-05-06 19:16 | 31.25902 | 35.30881 | 3813 ft | 79 kts | 264° |
| 2026-05-06 19:16 | 31.25850 | 35.30261 | 3932 ft | 68 kts | 257° |
| 2026-05-06 19:16 | 31.25719 | 35.29680 | 3896 ft | 72 kts | 252° |
| 2026-05-06 19:16 | 31.25589 | 35.29126 | 3862 ft | 75 kts | 264° |
| 2026-05-06 19:17 | 31.25559 | 35.28530 | 3872 ft | 72 kts | 267° |
| 2026-05-06 19:17 | 31.25513 | 35.27942 | 3896 ft | 70 kts | 261° |
| 2026-05-06 19:17 | 31.25457 | 35.27354 | 3889 ft | 74 kts | 268° |
| 2026-05-06 19:17 | 31.25467 | 35.26775 | 3933 ft | 72 kts | 271° |
| 2026-05-06 19:18 | 31.25478 | 35.26192 | 3977 ft | 70 kts | 263° |
| 2026-05-06 19:18 | 31.25420 | 35.25605 | 3994 ft | 72 kts | 258° |
| 2026-05-06 19:18 | 31.25326 | 35.25032 | 4024 ft | 73 kts | 259° |
| 2026-05-06 19:18 | 31.25249 | 35.24455 | 4035 ft | 76 kts | 261° |
| 2026-05-06 19:19 | 31.25169 | 35.23798 | 4010 ft | 82 kts | 262° |
| 2026-05-06 19:19 | 31.25098 | 35.23157 | 4070 ft | 76 kts | 259° |
| 2026-05-06 19:19 | 31.25065 | 35.22554 | 4103 ft | 75 kts | 284° |
| 2026-05-06 19:19 | 31.25173 | 35.21972 | 4142 ft | 72 kts | 276° |
| 2026-05-06 19:20 | 31.25233 | 35.21362 | 4132 ft | 74 kts | 275° |
| 2026-05-06 19:20 | 31.25260 | 35.20760 | 4127 ft | 76 kts | 270° |
| 2026-05-06 19:20 | 31.25244 | 35.20158 | 4144 ft | 74 kts | 262° |
| 2026-05-06 19:20 | 31.25277 | 35.19552 | 4146 ft | 74 kts | 279° |
| 2026-05-06 19:21 | 31.25389 | 35.18961 | 4144 ft | 75 kts | 281° |
| 2026-05-06 19:21 | 31.25502 | 35.18373 | 4157 ft | 74 kts | 283° |
| 2026-05-06 19:21 | 31.25606 | 35.17779 | 4163 ft | 74 kts | 282° |
| 2026-05-06 19:21 | 31.25730 | 35.17193 | 4168 ft | 74 kts | 281° |
| 2026-05-06 19:22 | 31.25837 | 35.16607 | 4169 ft | 73 kts | 279° |
| 2026-05-06 19:22 | 31.25930 | 35.16003 | 4105 ft | 75 kts | 278° |
| 2026-05-06 19:22 | 31.25981 | 35.15398 | 4029 ft | 80 kts | 272° |
| 2026-05-06 19:22 | 31.25971 | 35.14745 | 3988 ft | 77 kts | 249° |
| 2026-05-06 19:23 | 31.25803 | 35.14148 | 3948 ft | 72 kts | 275° |
| 2026-05-06 19:23 | 31.25885 | 35.13530 | 3895 ft | 79 kts | 275° |
| 2026-05-06 19:23 | 31.25926 | 35.12862 | 3905 ft | 79 kts | 276° |
| 2026-05-06 19:23 | 31.26016 | 35.12269 | 3950 ft | 77 kts | 286° |
| 2026-05-06 19:24 | 31.26177 | 35.11669 | 3995 ft | 74 kts | 293° |
| 2026-05-06 19:24 | 31.26279 | 35.11058 | 3996 ft | 77 kts | 281° |
| 2026-05-06 19:24 | 31.26392 | 35.10457 | 4003 ft | 78 kts | 286° |
| 2026-05-06 19:24 | 31.26549 | 35.09861 | 4030 ft | 75 kts | 290° |
| 2026-05-06 19:25 | 31.26755 | 35.09283 | 4055 ft | 76 kts | 296° |
| 2026-05-06 19:25 | 31.26894 | 35.08669 | 4066 ft | 79 kts | 272° |
| 2026-05-06 19:25 | 31.26923 | 35.08033 | 4106 ft | 79 kts | 270° |
| 2026-05-06 19:25 | 31.26942 | 35.07388 | 4130 ft | 81 kts | 271° |
| 2026-05-06 19:26 | 31.26951 | 35.06741 | 4183 ft | 78 kts | 268° |
| 2026-05-06 19:26 | 31.26955 | 35.06090 | 4192 ft | 81 kts | 273° |
| 2026-05-06 19:26 | 31.27010 | 35.05441 | 4110 ft | 87 kts | 277° |
| 2026-05-06 19:26 | 31.27097 | 35.04801 | 4120 ft | 79 kts | 279° |
| 2026-05-06 19:27 | 31.27185 | 35.04139 | 4102 ft | 76 kts | 279° |
| 2026-05-06 19:27 | 31.27309 | 35.03497 | 3997 ft | 85 kts | 284° |
| 2026-05-06 19:27 | 31.27462 | 35.02878 | 4007 ft | 80 kts | 282° |
| 2026-05-06 19:27 | 31.27561 | 35.02233 | 4004 ft | 76 kts | 281° |
| 2026-05-06 19:28 | 31.27672 | 35.01590 | 3908 ft | 82 kts | 280° |
| 2026-05-06 19:28 | 31.27767 | 35.00930 | 3860 ft | 81 kts | 278° |
| 2026-05-06 19:28 | 31.27867 | 35.00271 | 3819 ft | 79 kts | 282° |
| 2026-05-06 19:28 | 31.27975 | 34.99638 | 3756 ft | 81 kts | 277° |
| 2026-05-06 19:29 | 31.28043 | 34.98987 | 3766 ft | 79 kts | 275° |
| 2026-05-06 19:29 | 31.28091 | 34.98347 | 3785 ft | 80 kts | 272° |
| 2026-05-06 19:29 | 31.28092 | 34.97678 | 3755 ft | 86 kts | 266° |
| 2026-05-06 19:29 | 31.27937 | 34.97014 | 3770 ft | 86 kts | 235° |
| 2026-05-06 19:30 | 31.27600 | 34.96425 | 3799 ft | 88 kts | 235° |
| 2026-05-06 19:30 | 31.27263 | 34.95818 | 3809 ft | 93 kts | 235° |
| 2026-05-06 19:30 | 31.26884 | 34.95169 | 3817 ft | 93 kts | 236° |
| 2026-05-06 19:30 | 31.26526 | 34.94540 | 3833 ft | 95 kts | 234° |
| 2026-05-06 19:31 | 31.26139 | 34.93926 | 3854 ft | 95 kts | 234° |
| 2026-05-06 19:31 | 31.25784 | 34.93278 | 3871 ft | 96 kts | 238° |
| 2026-05-06 19:31 | 31.25067 | 34.92001 | 3905 ft | 90 kts | 230° |
| 2026-05-06 19:32 | 31.24670 | 34.91451 | 3771 ft | 92 kts | 231° |
| 2026-05-06 19:32 | 31.24258 | 34.90868 | 3608 ft | 94 kts | 231° |
| 2026-05-06 19:32 | 31.23866 | 34.90260 | 3500 ft | 90 kts | 232° |
| 2026-05-06 19:32 | 31.23509 | 34.89656 | 3375 ft | 89 kts | 250° |
| 2026-05-06 19:33 | 31.23468 | 34.88989 | 3291 ft | 87 kts | 275° |
| 2026-05-06 19:33 | 31.23657 | 34.88374 | 3234 ft | 80 kts | 311° |
| 2026-05-06 19:33 | 31.24024 | 34.87833 | 3125 ft | 88 kts | 310° |
| 2026-05-06 19:33 | 31.24416 | 34.87244 | 3036 ft | 95 kts | 315° |
| 2026-05-06 19:34 | 31.24884 | 34.86668 | 2984 ft | 95 kts | 319° |
| 2026-05-06 19:34 | 31.25379 | 34.86149 | 2913 ft | 97 kts | 321° |
| 2026-05-06 19:34 | 31.25865 | 34.85599 | 2918 ft | 97 kts | 314° |
| 2026-05-06 19:34 | 31.26314 | 34.84997 | 2903 ft | 99 kts | 302° |
| 2026-05-06 19:35 | 31.26479 | 34.84253 | 3049 ft | 91 kts | 278° |
| 2026-05-06 19:35 | 31.26678 | 34.83566 | 3221 ft | 86 kts | 300° |
| 2026-05-06 19:35 | 31.26948 | 34.82971 | 3358 ft | 85 kts | 298° |
| 2026-05-06 19:35 | 31.27227 | 34.82338 | 3403 ft | 93 kts | 305° |
| 2026-05-06 19:36 | 31.27490 | 34.81640 | 3504 ft | 85 kts | 290° |
| 2026-05-06 19:36 | 31.27665 | 34.80996 | 3482 ft | 77 kts | 282° |
| 2026-05-06 19:36 | 31.27776 | 34.80360 | 3418 ft | 83 kts | 280° |
| 2026-05-06 19:36 | 31.27832 | 34.79713 | 3485 ft | 78 kts | 266° |
| 2026-05-06 19:37 | 31.27777 | 34.79075 | 3498 ft | 80 kts | 258° |
| 2026-05-06 19:37 | 31.27519 | 34.78521 | 3495 ft | 80 kts | 220° |
| 2026-05-06 19:37 | 31.27071 | 34.78099 | 3366 ft | 82 kts | 218° |
| 2026-05-06 19:37 | 31.26707 | 34.77609 | 3270 ft | 81 kts | 248° |
| 2026-05-06 19:38 | 31.26641 | 34.76956 | 3133 ft | 86 kts | 277° |
| 2026-05-06 19:38 | 31.26747 | 34.76211 | 2835 ft | 97 kts | 285° |
| 2026-05-06 19:38 | 31.26891 | 34.75517 | 2678 ft | 82 kts | 284° |
| 2026-05-06 19:38 | 31.27070 | 34.74893 | 2462 ft | 80 kts | 293° |
| 2026-05-06 19:39 | 31.27303 | 34.74276 | 2201 ft | 84 kts | 296° |
| 2026-05-06 19:39 | 31.27591 | 34.73691 | 1967 ft | 82 kts | 304° |
| 2026-05-06 19:39 | 31.27939 | 34.73159 | 1728 ft | 82 kts | 314° |
| 2026-05-06 19:39 | 31.28323 | 34.72692 | 1551 ft | 78 kts | 311° |
| 2026-05-06 19:40 | 31.28666 | 34.72229 | 1475 ft | 72 kts | 312° |
| 2026-05-06 19:40 | 31.28996 | 34.71785 | 1355 ft | 75 kts | 308° |
| 2026-05-06 19:40 | 31.29399 | 34.71561 | 1370 ft | 65 kts | 17° |
| 2026-05-06 19:40 | 31.29851 | 34.71710 | 1351 ft | 68 kts | 9° |
| 2026-05-06 19:41 | 31.30243 | 34.72003 | 1320 ft | 72 kts | 66° |
| 2026-05-06 19:41 | 31.30177 | 34.72526 | 1359 ft | 65 kts | 114° |
| 2026-05-06 19:41 | 31.29905 | 34.72935 | 1355 ft | 67 kts | 136° |
| 2026-05-06 19:41 | 31.29512 | 34.73261 | 1369 ft | 65 kts | 147° |
| 2026-05-06 19:42 | 31.29090 | 34.73535 | 1328 ft | 68 kts | 151° |
| 2026-05-06 19:42 | 31.28665 | 34.73829 | 1295 ft | 71 kts | 147° |
| 2026-05-06 19:42 | 31.28236 | 34.74157 | 1269 ft | 73 kts | 145° |
| 2026-05-06 19:42 | 31.27779 | 34.74238 | 1225 ft | 70 kts | 206° |
| 2026-05-06 19:43 | 31.27450 | 34.73834 | 1119 ft | 66 kts | 242° |
| 2026-05-06 19:43 | 31.27571 | 34.73356 | 1000 ft | 66 kts | 322° |
| 2026-05-06 19:43 | 31.27954 | 34.73039 | 852 ft | 65 kts | 324° |
| 2026-05-06 19:43 | 31.28297 | 34.72708 | 698 ft | 60 kts | 320° |
| 2026-05-06 19:44 | 31.28543 | 34.72438 | 657 ft | 25 kts | 320° |
| 2026-05-06 19:44 | 31.28633 | 34.72377 | 657 ft | 11 kts | 41° |
| 2026-05-06 19:44 | 31.28653 | 34.72404 | 657 ft | 9 kts | 57° |
| 2026-05-06 19:44 | 31.28678 | 34.72409 | 657 ft | 6 kts | 308° |
| 2026-05-06 19:45 | 31.28680 | 34.72393 | 657 ft | 0 kts | 227° |
| 2026-05-06 19:45 | 31.28679 | 34.72393 | 657 ft | 0 kts | 226° |